createdAt,value
2023-04-18T00:00:24.962Z,9.94
2023-04-18T00:01:24.958Z,9.90
2023-04-18T00:02:25.032Z,9.87
2023-04-18T00:03:25.206Z,9.84
2023-04-18T00:04:25.067Z,9.91
2023-04-18T00:05:24.947Z,10.01
2023-04-18T00:06:24.867Z,9.93
2023-04-18T00:07:24.855Z,9.91
2023-04-18T00:08:24.824Z,9.75
2023-04-18T00:09:24.898Z,9.78
2023-04-18T00:10:24.837Z,9.69
2023-04-18T00:11:24.812Z,9.66
2023-04-18T00:12:24.792Z,9.69
2023-04-18T00:13:24.768Z,9.73
2023-04-18T00:14:24.772Z,9.69
2023-04-18T00:15:24.789Z,9.63
2023-04-18T00:16:24.782Z,9.63
2023-04-18T00:17:24.740Z,9.55
2023-04-18T00:18:24.717Z,9.62
2023-04-18T00:19:24.713Z,9.59
2023-04-18T00:20:24.738Z,9.62
2023-04-18T00:21:24.680Z,9.59
2023-04-18T00:22:24.664Z,9.51
2023-04-18T00:23:24.639Z,9.44
2023-04-18T00:24:24.626Z,9.33
2023-04-18T00:25:24.676Z,9.30
2023-04-18T00:26:24.607Z,9.36
2023-04-18T00:27:24.587Z,9.36
2023-04-18T00:28:24.585Z,9.41
2023-04-18T00:29:24.576Z,9.29
2023-04-18T00:30:24.591Z,9.29
2023-04-18T00:31:24.611Z,9.30
2023-04-18T00:32:24.561Z,9.24
2023-04-18T00:33:24.533Z,9.18
2023-04-18T00:34:24.513Z,9.24
2023-04-18T00:35:24.512Z,9.22
2023-04-18T00:36:24.469Z,9.11
2023-04-18T00:37:24.455Z,9.16
2023-04-18T00:38:24.448Z,9.15
2023-04-18T00:39:24.447Z,9.16
2023-04-18T00:40:24.448Z,9.18
2023-04-18T00:41:24.397Z,9.11
2023-04-18T00:42:24.387Z,9.11
2023-04-18T00:43:24.378Z,9.08
2023-04-18T00:44:24.367Z,9.04
2023-04-18T00:45:24.375Z,9.11
2023-04-18T00:46:24.395Z,9.01
2023-04-18T00:47:24.327Z,9.03
2023-04-18T00:48:24.344Z,9.03
2023-04-18T00:49:24.322Z,9.04
2023-04-18T00:50:24.329Z,8.99
2023-04-18T00:51:24.296Z,9.06
2023-04-18T00:52:24.264Z,9.03
2023-04-18T00:53:24.254Z,8.96
2023-04-18T00:54:24.254Z,8.96
2023-04-18T00:55:24.244Z,8.93
2023-04-18T00:56:24.216Z,8.90
2023-04-18T00:57:24.192Z,8.90
2023-04-18T00:58:24.189Z,8.89
2023-04-18T00:59:24.161Z,8.92
2023-04-18T01:00:24.187Z,8.99
2023-04-18T01:01:24.202Z,8.96
2023-04-18T01:02:24.278Z,8.89
2023-04-18T01:03:24.223Z,8.78
2023-04-18T01:04:24.184Z,8.71
2023-04-18T01:05:24.174Z,8.70
2023-04-18T01:06:24.083Z,8.68
2023-04-18T01:07:24.064Z,8.68
2023-04-18T01:08:24.042Z,8.72
2023-04-18T01:09:24.040Z,8.74
2023-04-18T01:10:24.052Z,8.75
2023-04-18T01:11:24.016Z,8.74
2023-04-18T01:12:24.029Z,8.81
2023-04-18T01:13:23.986Z,8.83
2023-04-18T01:14:24.070Z,8.72
2023-04-18T01:15:24.039Z,8.72
2023-04-18T01:16:24.086Z,8.78
2023-04-18T01:17:24.033Z,8.71
2023-04-18T01:18:24.025Z,8.68
2023-04-18T01:19:23.905Z,8.85
2023-04-18T01:20:23.911Z,8.90
2023-04-18T01:21:23.877Z,8.81
2023-04-18T01:22:23.875Z,8.78
2023-04-18T01:23:23.876Z,8.75
2023-04-18T01:24:23.848Z,8.75
2023-04-18T01:25:23.842Z,8.80
2023-04-18T01:26:23.827Z,8.74
2023-04-18T01:27:23.805Z,8.67
2023-04-18T01:28:23.796Z,8.68
2023-04-18T01:29:23.773Z,8.60
2023-04-18T01:30:23.798Z,8.50
2023-04-18T01:31:23.767Z,8.53
2023-04-18T01:32:23.781Z,8.47
2023-04-18T01:33:23.739Z,8.47
2023-04-18T01:34:23.719Z,8.50
2023-04-18T01:35:23.729Z,8.55
2023-04-18T01:36:23.704Z,8.50
2023-04-18T01:37:23.688Z,8.42
2023-04-18T01:38:23.649Z,8.35
2023-04-18T01:39:23.653Z,8.42
2023-04-18T01:40:23.657Z,8.47
2023-04-18T01:41:23.637Z,8.55
2023-04-18T01:42:23.632Z,8.38
2023-04-18T01:43:23.623Z,8.35
2023-04-18T01:44:23.589Z,8.35
2023-04-18T01:45:23.605Z,8.42
2023-04-18T01:46:23.619Z,8.49
2023-04-18T01:47:23.550Z,8.39
2023-04-18T01:48:23.536Z,8.41
2023-04-18T01:49:23.543Z,8.47
2023-04-18T01:50:23.550Z,8.46
2023-04-18T01:51:23.506Z,8.42
2023-04-18T01:52:23.487Z,8.31
2023-04-18T01:53:23.463Z,8.35
2023-04-18T01:54:23.461Z,8.39
2023-04-18T01:55:23.471Z,8.38
2023-04-18T01:56:23.466Z,8.19
2023-04-18T01:57:23.434Z,8.16
2023-04-18T01:58:23.404Z,8.09
2023-04-18T01:59:23.403Z,8.06
2023-04-18T02:00:23.395Z,8.12
2023-04-18T02:01:23.422Z,8.13
2023-04-18T02:02:23.467Z,8.16
2023-04-18T02:03:23.451Z,8.19
2023-04-18T02:04:23.440Z,8.13
2023-04-18T02:05:23.341Z,8.14
2023-04-18T02:06:23.309Z,8.14
2023-04-18T02:07:23.289Z,8.16
2023-04-18T02:08:23.277Z,8.14
2023-04-18T02:09:23.258Z,8.20
2023-04-18T02:10:23.293Z,8.14
2023-04-18T02:11:23.231Z,8.13
2023-04-18T02:12:23.229Z,8.14
2023-04-18T02:13:23.212Z,8.06
2023-04-18T02:14:23.221Z,8.06
2023-04-18T02:15:23.200Z,8.17
2023-04-18T02:16:23.221Z,8.05
2023-04-18T02:17:23.174Z,8.06
2023-04-18T02:18:23.168Z,8.02
2023-04-18T02:19:23.129Z,8.10
2023-04-18T02:20:23.153Z,8.05
2023-04-18T02:21:23.130Z,7.98
2023-04-18T02:22:23.107Z,8.06
2023-04-18T02:23:23.079Z,8.04
2023-04-18T02:24:23.071Z,8.01
2023-04-18T02:25:23.070Z,8.02
2023-04-18T02:26:23.069Z,8.05
2023-04-18T02:27:23.048Z,8.02
2023-04-18T02:28:23.165Z,7.96
2023-04-18T02:29:23.002Z,7.99
2023-04-18T02:30:23.007Z,7.99
2023-04-18T02:31:23.041Z,8.04
2023-04-18T02:32:22.999Z,7.98
2023-04-18T02:33:22.951Z,7.91
2023-04-18T02:34:22.952Z,7.87
2023-04-18T02:35:22.934Z,7.91
2023-04-18T02:36:22.938Z,7.92
2023-04-18T02:37:22.912Z,7.91
2023-04-18T02:38:22.881Z,7.87
2023-04-18T02:39:22.892Z,7.91
2023-04-18T02:40:22.858Z,8.01
2023-04-18T02:41:22.860Z,7.87
2023-04-18T02:42:22.842Z,7.88
2023-04-18T02:43:22.829Z,7.74
2023-04-18T02:44:22.831Z,7.74
2023-04-18T02:45:22.793Z,7.87
2023-04-18T02:46:22.911Z,7.92
2023-04-18T02:47:22.760Z,7.81
2023-04-18T02:48:22.779Z,7.86
2023-04-18T02:49:22.750Z,7.78
2023-04-18T02:50:22.753Z,7.66
2023-04-18T02:51:22.733Z,7.68
2023-04-18T02:52:22.713Z,7.54
2023-04-18T02:53:22.680Z,7.60
2023-04-18T02:54:22.688Z,7.60
2023-04-18T02:55:22.695Z,7.57
2023-04-18T02:56:22.688Z,7.64
2023-04-18T02:57:22.634Z,7.68
2023-04-18T02:58:22.643Z,7.62
2023-04-18T02:59:22.645Z,7.68
2023-04-18T03:00:22.605Z,7.74
2023-04-18T03:01:22.686Z,7.76
2023-04-18T03:02:22.694Z,7.71
2023-04-18T03:03:22.631Z,7.64
2023-04-18T03:04:22.571Z,7.71
2023-04-18T03:05:22.516Z,7.60
2023-04-18T03:06:22.530Z,7.49
2023-04-18T03:07:22.514Z,7.60
2023-04-18T03:08:22.489Z,7.55
2023-04-18T03:09:22.481Z,7.61
2023-04-18T03:10:22.473Z,7.60
2023-04-18T03:11:22.500Z,7.60
2023-04-18T03:12:22.459Z,7.64
2023-04-18T03:13:22.432Z,7.50
2023-04-18T03:14:22.413Z,7.61
2023-04-18T03:15:22.398Z,7.54
2023-04-18T03:16:22.642Z,7.49
2023-04-18T03:17:22.389Z,7.43
2023-04-18T03:18:22.354Z,7.43
2023-04-18T03:19:22.341Z,7.52
2023-04-18T03:20:22.333Z,7.39
2023-04-18T03:21:22.652Z,7.49
2023-04-18T03:22:22.312Z,7.46
2023-04-18T03:23:22.345Z,7.43
2023-04-18T03:24:22.289Z,7.44
2023-04-18T03:25:22.263Z,7.44
2023-04-18T03:26:22.718Z,7.34
2023-04-18T03:27:22.240Z,7.33
2023-04-18T03:28:22.222Z,7.36
2023-04-18T03:29:22.237Z,7.39
2023-04-18T03:30:22.211Z,7.43
2023-04-18T03:31:22.243Z,7.43
2023-04-18T03:32:22.195Z,7.39
2023-04-18T03:33:22.162Z,7.34
2023-04-18T03:34:22.148Z,7.26
2023-04-18T03:35:22.137Z,7.29
2023-04-18T03:36:22.146Z,7.28
2023-04-18T03:37:22.095Z,7.31
2023-04-18T03:38:22.099Z,7.39
2023-04-18T03:39:22.095Z,7.37
2023-04-18T03:40:22.079Z,7.31
2023-04-18T03:41:22.079Z,7.37
2023-04-18T03:42:22.046Z,7.37
2023-04-18T03:43:22.047Z,7.37
2023-04-18T03:44:22.019Z,7.34
2023-04-18T03:45:22.014Z,7.42
2023-04-18T03:46:22.186Z,7.34
2023-04-18T03:47:22.034Z,7.18
2023-04-18T03:48:21.975Z,7.19
2023-04-18T03:49:21.950Z,7.08
2023-04-18T03:50:21.982Z,7.08
2023-04-18T03:51:21.958Z,7.06
2023-04-18T03:52:23.296Z,7.03
2023-04-18T03:53:21.906Z,7.10
2023-04-18T03:54:21.885Z,6.99
2023-04-18T03:55:21.894Z,6.99
2023-04-18T03:56:21.912Z,7.01
2023-04-18T03:57:21.836Z,6.96
2023-04-18T03:59:19.402Z,6.89
2023-04-18T04:00:20.406Z,7.01
2023-04-18T04:01:20.405Z,6.92
2023-04-18T04:02:20.364Z,6.91
2023-04-18T04:03:20.359Z,6.96
2023-04-18T04:04:20.360Z,6.93
2023-04-18T04:05:20.312Z,6.93
2023-04-18T04:06:20.304Z,6.96
2023-04-18T04:07:20.263Z,6.92
2023-04-18T04:08:20.269Z,6.96
2023-04-18T04:09:20.227Z,6.97
2023-04-18T04:10:20.218Z,6.81
2023-04-18T04:11:20.264Z,6.78
2023-04-18T04:12:20.198Z,6.81
2023-04-18T04:13:20.181Z,6.83
2023-04-18T04:14:20.198Z,6.99
2023-04-18T04:15:20.163Z,6.89
2023-04-18T04:16:20.209Z,6.81
2023-04-18T04:17:20.139Z,6.82
2023-04-18T04:18:20.165Z,6.92
2023-04-18T04:19:20.104Z,6.89
2023-04-18T04:20:20.090Z,6.82
2023-04-18T04:21:21.199Z,6.91
2023-04-18T04:22:20.070Z,6.92
2023-04-18T04:23:20.109Z,6.86
2023-04-18T04:24:20.039Z,6.89
2023-04-18T04:26:19.490Z,6.92
2023-04-18T04:27:20.445Z,6.83
2023-04-18T04:28:20.434Z,6.79
2023-04-18T04:29:20.418Z,6.78
2023-04-18T04:30:20.406Z,6.85
2023-04-18T04:31:20.453Z,6.88
2023-04-18T04:32:20.459Z,6.91
2023-04-18T04:33:20.401Z,6.96
2023-04-18T04:34:20.351Z,6.92
2023-04-18T04:35:20.851Z,6.85
2023-04-18T04:36:20.351Z,6.85
2023-04-18T04:37:20.318Z,6.78
2023-04-18T04:38:20.308Z,6.85
2023-04-18T04:39:20.296Z,6.86
2023-04-18T04:40:20.275Z,6.96
2023-04-18T04:41:20.296Z,6.97
2023-04-18T04:42:20.259Z,7.08
2023-04-18T04:43:20.246Z,7.06
2023-04-18T04:44:20.241Z,7.11
2023-04-18T04:45:20.217Z,7.08
2023-04-18T04:46:20.436Z,7.04
2023-04-18T04:47:20.185Z,7.04
2023-04-18T04:48:20.176Z,7.08
2023-04-18T04:49:20.151Z,7.10
2023-04-18T04:50:20.160Z,7.15
2023-04-18T04:51:20.149Z,7.13
2023-04-18T04:52:20.131Z,7.07
2023-04-18T04:53:20.106Z,7.03
2023-04-18T04:54:20.106Z,7.08
2023-04-18T04:55:20.854Z,7.11
2023-04-18T04:56:20.121Z,7.16
2023-04-18T04:57:20.047Z,7.19
2023-04-18T04:58:20.059Z,7.21
2023-04-18T04:59:20.030Z,7.24
2023-04-18T05:00:20.060Z,7.36
2023-04-18T05:01:20.096Z,7.29
2023-04-18T05:02:20.069Z,7.24
2023-04-18T05:03:20.066Z,7.28
2023-04-18T05:04:20.346Z,7.34
2023-04-18T05:05:19.967Z,7.29
2023-04-18T05:06:19.959Z,7.28
2023-04-18T05:07:19.928Z,7.39
2023-04-18T05:08:19.916Z,7.25
2023-04-18T05:09:19.915Z,7.21
2023-04-18T05:10:19.895Z,7.25
2023-04-18T05:11:19.904Z,7.39
2023-04-18T05:12:19.866Z,7.33
2023-04-18T05:13:19.862Z,7.31
2023-04-18T05:14:19.840Z,7.42
2023-04-18T05:15:19.824Z,7.47
2023-04-18T05:16:19.903Z,7.57
2023-04-18T05:17:19.790Z,7.46
2023-04-18T05:18:19.786Z,7.36
2023-04-18T05:19:19.768Z,7.37
2023-04-18T05:20:19.769Z,7.40
2023-04-18T05:21:19.759Z,7.43
2023-04-18T05:22:19.738Z,7.49
2023-04-18T05:23:19.723Z,7.49
2023-04-18T05:24:19.721Z,7.49
2023-04-18T05:25:19.698Z,7.46
2023-04-18T05:26:19.711Z,7.47
2023-04-18T05:27:19.672Z,7.69
2023-04-18T05:28:19.656Z,7.73
2023-04-18T05:29:19.642Z,7.68
2023-04-18T05:30:19.629Z,7.54
2023-04-18T05:31:19.664Z,7.58
2023-04-18T05:32:19.638Z,7.81
2023-04-18T05:33:19.598Z,7.74
2023-04-18T05:34:19.582Z,7.77
2023-04-18T05:35:19.561Z,7.94
2023-04-18T05:36:19.576Z,7.95
2023-04-18T05:37:19.542Z,8.05
2023-04-18T05:38:19.524Z,8.10
2023-04-18T05:39:19.509Z,8.01
2023-04-18T05:40:19.523Z,8.02
2023-04-18T05:41:19.484Z,8.06
2023-04-18T05:42:19.491Z,8.16
2023-04-18T05:43:19.464Z,8.12
2023-04-18T05:44:19.749Z,8.20
2023-04-18T05:45:19.426Z,8.35
2023-04-18T05:46:19.475Z,8.39
2023-04-18T05:47:19.422Z,8.42
2023-04-18T05:48:19.420Z,8.49
2023-04-18T05:49:19.380Z,8.53
2023-04-18T05:50:19.385Z,8.56
2023-04-18T05:51:19.372Z,8.72
2023-04-18T05:52:19.358Z,8.89
2023-04-18T05:53:19.332Z,8.59
2023-04-18T05:54:19.321Z,8.62
2023-04-18T05:55:19.320Z,8.77
2023-04-18T05:56:19.297Z,8.90
2023-04-18T05:57:19.303Z,8.99
2023-04-18T05:58:19.267Z,9.09
2023-04-18T05:59:19.254Z,9.16
2023-04-18T06:00:19.245Z,9.14
2023-04-18T06:01:19.220Z,9.16
2023-04-18T06:02:19.337Z,9.37
2023-04-18T06:03:19.314Z,9.63
2023-04-18T06:04:19.718Z,9.77
2023-04-18T06:05:19.337Z,9.81
2023-04-18T06:06:19.180Z,9.62
2023-04-18T06:07:19.171Z,9.62
2023-04-18T06:08:19.139Z,9.36
2023-04-18T06:09:19.121Z,9.24
2023-04-18T06:10:19.117Z,9.34
2023-04-18T06:11:19.091Z,9.32
2023-04-18T06:12:19.103Z,9.33
2023-04-18T06:13:19.075Z,9.36
2023-04-18T06:14:19.057Z,9.22
2023-04-18T06:15:19.048Z,9.08
2023-04-18T06:16:19.076Z,8.96
2023-04-18T06:17:19.013Z,9.08
2023-04-18T06:18:19.030Z,8.96
2023-04-18T06:19:18.988Z,9.14
2023-04-18T06:20:18.991Z,9.24
2023-04-18T06:21:18.989Z,9.11
2023-04-18T06:22:18.953Z,9.08
2023-04-18T06:23:18.940Z,9.14
2023-04-18T06:24:18.922Z,9.22
2023-04-18T06:25:18.926Z,9.08
2023-04-18T06:26:18.948Z,9.01
2023-04-18T06:27:30.660Z,9.27
2023-04-18T06:28:18.887Z,9.26
2023-04-18T06:29:18.864Z,9.33
2023-04-18T06:30:18.858Z,9.60
2023-04-18T06:31:18.856Z,9.44
2023-04-18T06:32:18.891Z,9.24
2023-04-18T06:33:18.808Z,9.06
2023-04-18T06:34:18.802Z,9.22
2023-04-18T06:35:18.782Z,9.30
2023-04-18T06:36:18.806Z,9.29
2023-04-18T06:37:18.760Z,9.42
2023-04-18T06:38:18.744Z,9.57
2023-04-18T06:39:18.747Z,9.81
2023-04-18T06:40:18.725Z,9.83
2023-04-18T06:41:18.711Z,10.03
2023-04-18T06:42:20.252Z,10.21
2023-04-18T06:43:18.678Z,10.09
2023-04-18T06:44:18.681Z,10.30
2023-04-18T06:45:18.646Z,10.43
2023-04-18T06:46:18.673Z,10.54
2023-04-18T06:47:18.637Z,10.57
2023-04-18T06:48:18.608Z,10.41
2023-04-18T06:49:18.618Z,10.42
2023-04-18T06:50:18.580Z,10.16
2023-04-18T06:51:18.571Z,10.14
2023-04-18T06:52:18.583Z,10.16
2023-04-18T06:53:18.556Z,10.23
2023-04-18T06:54:18.547Z,10.06
2023-04-18T06:55:18.543Z,10.06
2023-04-18T06:56:18.513Z,10.10
2023-04-18T06:57:18.529Z,10.14
2023-04-18T06:58:18.477Z,9.98
2023-04-18T06:59:18.468Z,10.08
2023-04-18T07:00:18.457Z,9.99
2023-04-18T07:01:18.464Z,10.21
2023-04-18T07:02:18.491Z,10.24
2023-04-18T07:03:18.608Z,10.16
2023-04-18T07:04:18.682Z,10.26
2023-04-18T07:05:18.389Z,10.35
2023-04-18T07:06:18.376Z,10.21
2023-04-18T07:07:18.392Z,10.21
2023-04-18T07:08:18.342Z,10.09
2023-04-18T07:09:18.336Z,10.06
2023-04-18T07:10:18.327Z,9.87
2023-04-18T07:11:18.330Z,9.78
2023-04-18T07:12:18.315Z,9.84
2023-04-18T07:13:18.296Z,9.81
2023-04-18T07:14:18.269Z,9.99
2023-04-18T07:15:18.257Z,9.98
2023-04-18T07:16:18.265Z,9.88
2023-04-18T07:17:18.314Z,9.77
2023-04-18T07:18:30.180Z,9.65
2023-04-18T07:19:18.218Z,9.63
2023-04-18T07:20:18.209Z,9.60
2023-04-18T07:21:18.197Z,9.70
2023-04-18T07:22:18.167Z,9.91
2023-04-18T07:23:18.157Z,9.81
2023-04-18T07:24:18.136Z,9.72
2023-04-18T07:25:18.128Z,9.78
2023-04-18T07:26:18.186Z,9.69
2023-04-18T07:27:18.099Z,9.63
2023-04-18T07:28:18.078Z,9.78
2023-04-18T07:29:18.079Z,10.06
2023-04-18T07:30:18.046Z,9.99
2023-04-18T07:31:18.098Z,10.23
2023-04-18T07:32:18.060Z,10.43
2023-04-18T07:33:18.020Z,10.87
2023-04-18T07:34:18.004Z,11.40
2023-04-18T07:35:17.987Z,11.51
2023-04-18T07:36:17.980Z,11.71
2023-04-18T07:37:17.988Z,11.87
2023-04-18T07:38:17.962Z,12.04
2023-04-18T07:39:17.950Z,12.40
2023-04-18T07:40:17.934Z,12.32
2023-04-18T07:41:17.923Z,12.18
2023-04-18T07:42:17.924Z,11.84
2023-04-18T07:43:18.718Z,11.52
2023-04-18T07:44:17.874Z,11.23
2023-04-18T07:45:17.868Z,11.27
2023-04-18T07:46:17.963Z,11.18
2023-04-18T07:47:22.313Z,11.08
2023-04-18T07:48:17.882Z,10.91
2023-04-18T07:49:17.807Z,10.60
2023-04-18T07:50:17.817Z,10.49
2023-04-18T07:51:17.800Z,10.52
2023-04-18T07:52:17.785Z,10.45
2023-04-18T07:53:17.778Z,10.41
2023-04-18T07:54:17.743Z,10.49
2023-04-18T07:55:17.743Z,10.70
2023-04-18T07:56:17.720Z,10.73
2023-04-18T07:57:17.737Z,10.87
2023-04-18T07:58:17.696Z,11.09
2023-04-18T07:59:17.683Z,11.37
2023-04-18T08:00:17.662Z,11.48
2023-04-18T08:01:17.658Z,11.58
2023-04-18T08:02:17.720Z,11.84
2023-04-18T08:03:17.840Z,12.03
2023-04-18T08:04:17.799Z,11.91
2023-04-18T08:05:17.687Z,12.29
2023-04-18T08:06:17.605Z,12.63
2023-04-18T08:07:17.592Z,12.76
2023-04-18T08:08:17.562Z,12.83
2023-04-18T08:09:17.556Z,13.27
2023-04-18T08:10:17.539Z,13.54
2023-04-18T08:11:17.540Z,13.29
2023-04-18T08:12:17.517Z,13.47
2023-04-18T08:13:17.666Z,13.40
2023-04-18T08:14:17.480Z,13.85
2023-04-18T08:15:17.464Z,13.94
2023-04-18T08:16:17.831Z,13.94
2023-04-18T08:17:17.469Z,13.80
2023-04-18T08:18:17.444Z,13.51
2023-04-18T08:19:17.425Z,13.42
2023-04-18T08:20:17.407Z,13.39
2023-04-18T08:21:17.389Z,12.96
2023-04-18T08:22:17.392Z,12.66
2023-04-18T08:23:17.404Z,12.61
2023-04-18T08:24:17.369Z,12.50
2023-04-18T08:25:17.336Z,12.77
2023-04-18T08:26:17.332Z,12.87
2023-04-18T08:27:17.558Z,13.09
2023-04-18T08:28:17.371Z,13.08
2023-04-18T08:29:17.280Z,13.35
2023-04-18T08:30:17.260Z,13.30
2023-04-18T08:31:17.364Z,13.51
2023-04-18T08:32:17.254Z,13.58
2023-04-18T08:33:17.243Z,13.45
2023-04-18T08:34:17.222Z,13.01
2023-04-18T08:35:17.220Z,12.90
2023-04-18T08:36:17.242Z,13.05
2023-04-18T08:37:17.656Z,13.14
2023-04-18T08:38:17.207Z,13.30
2023-04-18T08:39:17.166Z,13.58
2023-04-18T08:40:17.149Z,13.46
2023-04-18T08:41:17.129Z,13.09
2023-04-18T08:42:17.128Z,12.46
2023-04-18T08:43:17.097Z,12.47
2023-04-18T08:44:17.098Z,12.40
2023-04-18T08:45:17.073Z,12.54
2023-04-18T08:46:17.108Z,12.66
2023-04-18T08:47:17.060Z,12.80
2023-04-18T08:48:17.033Z,12.46
2023-04-18T08:49:17.255Z,12.35
2023-04-18T08:50:16.992Z,12.17
2023-04-18T08:51:16.994Z,12.15
2023-04-18T08:52:17.027Z,12.22
2023-04-18T08:53:16.964Z,12.30
2023-04-18T08:54:16.941Z,12.11
2023-04-18T08:55:16.936Z,11.88
2023-04-18T08:56:16.919Z,11.88
2023-04-18T08:57:16.940Z,11.67
2023-04-18T08:58:16.885Z,11.70
2023-04-18T08:59:16.875Z,11.67
2023-04-18T09:00:16.865Z,11.74
2023-04-18T09:01:16.900Z,11.97
2023-04-18T09:02:16.891Z,11.82
2023-04-18T09:03:16.845Z,11.96
2023-04-18T09:04:16.858Z,11.96
2023-04-18T09:05:16.793Z,11.96
2023-04-18T09:06:16.778Z,11.87
2023-04-18T09:07:16.805Z,11.89
2023-04-18T09:08:16.763Z,11.82
2023-04-18T09:09:16.749Z,11.87
2023-04-18T09:10:16.723Z,11.84
2023-04-18T09:11:16.716Z,11.91
2023-04-18T09:12:16.708Z,12.15
2023-04-18T09:13:16.843Z,12.18
2023-04-18T09:14:16.690Z,12.13
2023-04-18T09:15:16.665Z,11.88
2023-04-18T09:16:16.670Z,11.79
2023-04-18T09:17:16.633Z,11.70
2023-04-18T09:18:16.641Z,11.62
2023-04-18T09:19:16.885Z,11.43
2023-04-18T09:20:16.592Z,11.20
2023-04-18T09:21:16.590Z,11.05
2023-04-18T09:22:16.567Z,11.01
2023-04-18T09:23:16.647Z,11.34
2023-04-18T09:24:16.542Z,11.48
2023-04-18T09:25:16.527Z,11.46
2023-04-18T09:26:16.509Z,11.46
2023-04-18T09:27:16.507Z,11.66
2023-04-18T09:28:16.517Z,11.67
2023-04-18T09:29:16.481Z,11.74
2023-04-18T09:30:16.469Z,11.70
2023-04-18T09:31:16.498Z,11.77
2023-04-18T09:32:16.462Z,11.89
2023-04-18T09:33:16.417Z,12.00
2023-04-18T09:34:16.413Z,12.14
2023-04-18T09:35:16.402Z,12.13
2023-04-18T09:36:16.381Z,11.84
2023-04-18T09:37:16.422Z,12.03
2023-04-18T09:38:16.381Z,11.96
2023-04-18T09:39:16.408Z,12.15
2023-04-18T09:40:16.334Z,12.07
2023-04-18T09:41:17.282Z,12.18
2023-04-18T09:42:16.308Z,11.96
2023-04-18T09:43:16.315Z,11.99
2023-04-18T09:44:16.363Z,11.91
2023-04-18T09:45:16.274Z,12.10
2023-04-18T09:46:16.297Z,11.84
2023-04-18T09:47:16.257Z,12.00
2023-04-18T09:48:16.236Z,11.91
2023-04-18T09:49:16.437Z,12.00
2023-04-18T09:50:16.201Z,11.97
2023-04-18T09:51:16.221Z,12.03
2023-04-18T09:52:16.167Z,12.25
2023-04-18T09:53:16.943Z,12.54
2023-04-18T09:54:16.254Z,12.59
2023-04-18T09:55:16.180Z,12.84
2023-04-18T09:56:16.116Z,12.84
2023-04-18T09:57:16.107Z,12.51
2023-04-18T09:58:16.099Z,12.69
2023-04-18T09:59:16.190Z,12.66
2023-04-18T10:00:16.067Z,12.46
2023-04-18T10:01:16.062Z,12.51
2023-04-18T10:02:16.063Z,12.71
2023-04-18T10:03:16.174Z,13.01
2023-04-18T10:04:16.165Z,13.29
2023-04-18T10:05:16.581Z,13.47
2023-04-18T10:06:15.980Z,13.47
2023-04-18T10:07:15.966Z,13.08
2023-04-18T10:08:15.982Z,12.98
2023-04-18T10:09:16.486Z,13.09
2023-04-18T10:10:15.924Z,12.99
2023-04-18T10:11:15.942Z,13.01
2023-04-18T10:12:15.901Z,12.87
2023-04-18T10:13:15.911Z,12.59
2023-04-18T10:14:16.222Z,11.93
2023-04-18T10:15:15.862Z,11.70
2023-04-18T10:16:15.896Z,11.37
2023-04-18T10:17:15.832Z,11.59
2023-04-18T10:18:15.877Z,11.76
2023-04-18T10:19:15.887Z,11.79
2023-04-18T10:20:15.797Z,11.73
2023-04-18T10:21:15.797Z,11.97
2023-04-18T10:22:15.772Z,12.03
2023-04-18T10:23:15.786Z,11.93
2023-04-18T10:24:15.786Z,11.77
2023-04-18T10:25:15.740Z,11.84
2023-04-18T10:26:15.722Z,11.89
2023-04-18T10:27:15.702Z,12.00
2023-04-18T10:28:15.722Z,12.00
2023-04-18T10:29:15.811Z,11.96
2023-04-18T10:30:15.663Z,11.82
2023-04-18T10:31:15.699Z,11.89
2023-04-18T10:32:15.640Z,11.77
2023-04-18T10:33:27.945Z,11.77
2023-04-18T10:34:15.622Z,12.03
2023-04-18T10:35:15.610Z,11.99
2023-04-18T10:36:15.578Z,12.17
2023-04-18T10:37:22.080Z,12.17
2023-04-18T10:38:15.598Z,12.18
2023-04-18T10:39:15.553Z,11.96
2023-04-18T10:40:15.595Z,12.25
2023-04-18T10:41:15.521Z,12.22
2023-04-18T10:42:15.546Z,12.26
2023-04-18T10:43:15.544Z,12.29
2023-04-18T10:44:16.003Z,11.96
2023-04-18T10:45:15.517Z,12.03
2023-04-18T10:46:30.420Z,12.22
2023-04-18T10:47:15.525Z,12.23
2023-04-18T10:48:15.591Z,12.44
2023-04-18T10:49:15.704Z,12.80
2023-04-18T10:50:15.403Z,12.87
2023-04-18T10:51:15.399Z,12.77
2023-04-18T10:52:15.401Z,12.88
2023-04-18T10:53:15.619Z,12.72
2023-04-18T10:54:15.665Z,12.87
2023-04-18T10:55:15.363Z,13.06
2023-04-18T10:56:15.354Z,12.80
2023-04-18T10:57:15.319Z,13.04
2023-04-18T10:58:15.341Z,13.13
2023-04-18T10:59:15.279Z,12.96
2023-04-18T11:00:15.297Z,12.77
2023-04-18T11:01:15.292Z,12.66
2023-04-18T11:02:15.295Z,12.77
2023-04-18T11:03:15.382Z,12.71
2023-04-18T11:04:15.694Z,12.77
2023-04-18T11:05:15.219Z,12.66
2023-04-18T11:06:15.192Z,12.63
2023-04-18T11:07:15.198Z,12.66
2023-04-18T11:08:15.203Z,12.79
2023-04-18T11:09:15.156Z,12.84
2023-04-18T11:10:15.227Z,12.81
2023-04-18T11:11:15.169Z,12.84
2023-04-18T11:12:15.140Z,12.90
2023-04-18T11:13:15.133Z,13.04
2023-04-18T11:14:15.280Z,13.40
2023-04-18T11:15:15.083Z,13.53
2023-04-18T11:16:15.097Z,13.64
2023-04-18T11:17:15.057Z,13.91
2023-04-18T11:18:15.235Z,14.05
2023-04-18T11:19:15.043Z,14.18
2023-04-18T11:20:15.099Z,13.72
2023-04-18T11:21:14.998Z,13.55
2023-04-18T11:22:15.063Z,13.78
2023-04-18T11:23:15.023Z,13.76
2023-04-18T11:24:15.406Z,13.63
2023-04-18T11:25:15.018Z,13.60
2023-04-18T11:26:14.939Z,13.64
2023-04-18T11:27:14.936Z,13.68
2023-04-18T11:28:14.925Z,13.63
2023-04-18T11:29:14.971Z,13.72
2023-04-18T11:30:14.891Z,13.65
2023-04-18T11:31:14.881Z,13.49
2023-04-18T11:32:14.888Z,13.65
2023-04-18T11:33:14.913Z,13.67
2023-04-18T11:34:15.094Z,13.65
2023-04-18T11:35:14.822Z,13.57
2023-04-18T11:36:14.800Z,13.55
2023-04-18T11:37:14.792Z,13.45
2023-04-18T11:38:14.809Z,13.32
2023-04-18T11:39:14.823Z,13.23
2023-04-18T11:40:14.740Z,13.13
2023-04-18T11:41:14.728Z,12.81
2023-04-18T11:42:14.703Z,13.13
2023-04-18T11:43:14.721Z,13.49
2023-04-18T11:44:14.872Z,13.43
2023-04-18T11:45:14.681Z,13.47
2023-04-18T11:46:14.705Z,13.64
2023-04-18T11:47:14.668Z,13.78
2023-04-18T11:48:14.656Z,13.76
2023-04-18T11:49:14.623Z,13.85
2023-04-18T11:50:14.625Z,13.83
2023-04-18T11:51:14.597Z,13.93
2023-04-18T11:52:14.595Z,13.90
2023-04-18T11:53:14.581Z,14.01
2023-04-18T11:54:14.794Z,14.09
2023-04-18T11:55:14.536Z,14.04
2023-04-18T11:56:14.545Z,13.93
2023-04-18T11:57:14.554Z,13.76
2023-04-18T11:58:14.660Z,13.78
2023-04-18T11:59:14.532Z,13.83
2023-04-18T12:00:14.476Z,13.91
2023-04-18T12:01:14.484Z,13.80
2023-04-18T12:02:16.839Z,13.78
2023-04-18T12:03:14.612Z,13.93
2023-04-18T12:04:14.812Z,13.83
2023-04-18T12:05:14.982Z,13.49
2023-04-18T12:06:14.471Z,13.46
2023-04-18T12:07:14.410Z,13.42
2023-04-18T12:08:14.461Z,13.01
2023-04-18T12:09:14.412Z,12.88
2023-04-18T12:10:14.375Z,13.11
2023-04-18T12:11:14.319Z,13.13
2023-04-18T12:12:14.346Z,13.23
2023-04-18T12:13:14.324Z,13.11
2023-04-18T12:14:14.486Z,13.06
2023-04-18T12:15:14.297Z,12.98
2023-04-18T12:16:14.350Z,13.13
2023-04-18T12:17:14.253Z,13.11
2023-04-18T12:18:14.227Z,13.17
2023-04-18T12:19:14.277Z,13.32
2023-04-18T12:20:14.239Z,13.36
2023-04-18T12:21:14.193Z,13.26
2023-04-18T12:22:14.196Z,13.19
2023-04-18T12:23:14.219Z,13.17
2023-04-18T12:24:14.470Z,13.19
2023-04-18T12:25:14.148Z,13.26
2023-04-18T12:26:14.138Z,13.11
2023-04-18T12:27:14.116Z,13.24
2023-04-18T12:28:14.113Z,13.04
2023-04-18T12:29:14.338Z,13.21
2023-04-18T12:30:14.133Z,13.35
2023-04-18T12:31:14.087Z,13.39
2023-04-18T12:32:14.059Z,13.46
2023-04-18T12:33:14.039Z,13.65
2023-04-18T12:34:14.171Z,13.73
2023-04-18T12:35:14.066Z,13.82
2023-04-18T12:36:14.013Z,14.08
2023-04-18T12:37:13.980Z,14.36
2023-04-18T12:38:13.970Z,14.51
2023-04-18T12:39:13.999Z,14.70
2023-04-18T12:40:13.976Z,15.12
2023-04-18T12:41:13.943Z,15.33
2023-04-18T12:42:13.937Z,15.20
2023-04-18T12:43:13.902Z,15.25
2023-04-18T12:44:14.085Z,15.65
2023-04-18T12:45:13.877Z,15.38
2023-04-18T12:46:13.893Z,15.45
2023-04-18T12:47:13.850Z,15.63
2023-04-18T12:48:13.832Z,16.21
2023-04-18T12:49:13.851Z,16.13
2023-04-18T12:50:13.841Z,15.84
2023-04-18T12:51:13.778Z,15.48
2023-04-18T12:52:13.783Z,15.35
2023-04-18T12:53:13.757Z,15.26
2023-04-18T12:54:13.995Z,15.38
2023-04-18T12:55:13.736Z,15.51
2023-04-18T12:56:13.727Z,15.27
2023-04-18T12:57:13.700Z,15.20
2023-04-18T12:58:13.741Z,15.40
2023-04-18T12:59:13.997Z,15.44
2023-04-18T13:00:14.046Z,15.43
2023-04-18T13:01:13.702Z,15.26
2023-04-18T13:02:13.719Z,15.10
2023-04-18T13:03:13.853Z,15.15
2023-04-18T13:04:14.104Z,14.69
2023-04-18T13:05:13.651Z,14.49
2023-04-18T13:06:13.607Z,14.69
2023-04-18T13:07:13.593Z,14.61
2023-04-18T13:08:17.677Z,14.89